sensor_id;sensor_type;location;lat;lon;timestamp;temperature;humidity
11501;DHT22;5807;51.606;7.624;2022-08-19T00:01:35;17.50;99.90
11501;DHT22;5807;51.606;7.624;2022-08-19T00:04:04;17.50;99.90
11501;DHT22;5807;51.606;7.624;2022-08-19T00:06:34;17.40;99.90
11501;DHT22;5807;51.606;7.624;2022-08-19T00:09:03;17.50;99.90
11501;DHT22;5807;51.606;7.624;2022-08-19T00:11:30;17.40;99.90
11501;DHT22;5807;51.606;7.624;2022-08-19T00:13:57;17.30;99.90
11501;DHT22;5807;51.606;7.624;2022-08-19T00:16:25;17.30;99.90
11501;DHT22;5807;51.606;7.624;2022-08-19T00:18:52;17.30;99.90
11501;DHT22;5807;51.606;7.624;2022-08-19T00:21:20;17.30;99.90
11501;DHT22;5807;51.606;7.624;2022-08-19T00:23:49;17.20;99.90
11501;DHT22;5807;51.606;7.624;2022-08-19T00:26:16;17.20;99.90
11501;DHT22;5807;51.606;7.624;2022-08-19T00:28:43;17.10;99.90
11501;DHT22;5807;51.606;7.624;2022-08-19T00:31:10;17.10;99.90
11501;DHT22;5807;51.606;7.624;2022-08-19T00:33:37;17.00;99.90
11501;DHT22;5807;51.606;7.624;2022-08-19T00:36:06;17.10;99.90
11501;DHT22;5807;51.606;7.624;2022-08-19T00:38:35;17.00;99.90
11501;DHT22;5807;51.606;7.624;2022-08-19T00:43:31;17.00;99.90
11501;DHT22;5807;51.606;7.624;2022-08-19T00:45:57;17.00;99.90
11501;DHT22;5807;51.606;7.624;2022-08-19T00:48:24;17.00;99.90
11501;DHT22;5807;51.606;7.624;2022-08-19T00:50:52;16.90;99.90
11501;DHT22;5807;51.606;7.624;2022-08-19T00:53:23;16.90;99.90
11501;DHT22;5807;51.606;7.624;2022-08-19T00:55:53;16.90;99.90
11501;DHT22;5807;51.606;7.624;2022-08-19T00:58:27;16.90;99.90
11501;DHT22;5807;51.606;7.624;2022-08-19T01:00:55;16.80;99.90
11501;DHT22;5807;51.606;7.624;2022-08-19T01:03:23;16.80;99.90
11501;DHT22;5807;51.606;7.624;2022-08-19T01:05:50;16.80;99.90
11501;DHT22;5807;51.606;7.624;2022-08-19T01:08:19;16.70;99.90
11501;DHT22;5807;51.606;7.624;2022-08-19T01:10:48;16.70;99.90
11501;DHT22;5807;51.606;7.624;2022-08-19T01:13:17;16.70;99.90
11501;DHT22;5807;51.606;7.624;2022-08-19T01:15:50;16.70;99.90
11501;DHT22;5807;51.606;7.624;2022-08-19T01:18:19;16.70;99.90
11501;DHT22;5807;51.606;7.624;2022-08-19T01:20:47;16.60;99.90
11501;DHT22;5807;51.606;7.624;2022-08-19T01:23:15;16.60;99.90
11501;DHT22;5807;51.606;7.624;2022-08-19T01:25:46;16.60;99.90
11501;DHT22;5807;51.606;7.624;2022-08-19T01:28:17;16.60;99.90
11501;DHT22;5807;51.606;7.624;2022-08-19T01:30:45;16.60;99.90
11501;DHT22;5807;51.606;7.624;2022-08-19T01:33:12;16.50;99.90
11501;DHT22;5807;51.606;7.624;2022-08-19T01:35:40;16.40;99.90
11501;DHT22;5807;51.606;7.624;2022-08-19T01:38:09;16.50;99.90
11501;DHT22;5807;51.606;7.624;2022-08-19T01:40:39;16.50;99.90
11501;DHT22;5807;51.606;7.624;2022-08-19T01:43:08;16.50;99.90
11501;DHT22;5807;51.606;7.624;2022-08-19T01:45:35;16.40;99.90
11501;DHT22;5807;51.606;7.624;2022-08-19T01:48:06;16.50;99.90
11501;DHT22;5807;51.606;7.624;2022-08-19T01:50:33;16.50;99.90
11501;DHT22;5807;51.606;7.624;2022-08-19T01:53:02;16.40;99.90
11501;DHT22;5807;51.606;7.624;2022-08-19T01:55:30;16.40;99.90
11501;DHT22;5807;51.606;7.624;2022-08-19T01:58:00;16.40;99.90
11501;DHT22;5807;51.606;7.624;2022-08-19T02:00:30;16.30;99.90
11501;DHT22;5807;51.606;7.624;2022-08-19T02:02:57;16.40;99.90
11501;DHT22;5807;51.606;7.624;2022-08-19T02:05:24;16.40;99.90
11501;DHT22;5807;51.606;7.624;2022-08-19T02:07:51;16.40;99.90
11501;DHT22;5807;51.606;7.624;2022-08-19T02:10:20;16.40;99.90
11501;DHT22;5807;51.606;7.624;2022-08-19T02:12:48;16.40;99.90
11501;DHT22;5807;51.606;7.624;2022-08-19T02:15:18;16.40;99.90
11501;DHT22;5807;51.606;7.624;2022-08-19T02:17:45;16.40;99.90
11501;DHT22;5807;51.606;7.624;2022-08-19T02:20:13;16.40;99.90
11501;DHT22;5807;51.606;7.624;2022-08-19T02:22:41;16.40;99.90
11501;DHT22;5807;51.606;7.624;2022-08-19T02:25:09;16.40;99.90
11501;DHT22;5807;51.606;7.624;2022-08-19T02:27:36;16.40;99.90
11501;DHT22;5807;51.606;7.624;2022-08-19T02:30:13;16.40;99.90
11501;DHT22;5807;51.606;7.624;2022-08-19T02:32:42;16.40;99.90
11501;DHT22;5807;51.606;7.624;2022-08-19T02:35:10;16.40;99.90
11501;DHT22;5807;51.606;7.624;2022-08-19T02:37:37;16.40;99.90
11501;DHT22;5807;51.606;7.624;2022-08-19T02:40:22;16.30;99.90
11501;DHT22;5807;51.606;7.624;2022-08-19T02:42:49;16.30;99.90
11501;DHT22;5807;51.606;7.624;2022-08-19T02:45:16;16.30;99.90
11501;DHT22;5807;51.606;7.624;2022-08-19T02:47:45;16.20;99.90
11501;DHT22;5807;51.606;7.624;2022-08-19T02:50:12;16.20;99.90
11501;DHT22;5807;51.606;7.624;2022-08-19T02:52:40;16.20;99.90
11501;DHT22;5807;51.606;7.624;2022-08-19T02:55:07;16.20;99.90
11501;DHT22;5807;51.606;7.624;2022-08-19T02:57:34;16.20;99.90
11501;DHT22;5807;51.606;7.624;2022-08-19T03:00:04;16.20;99.90
11501;DHT22;5807;51.606;7.624;2022-08-19T03:02:31;16.20;99.90
11501;DHT22;5807;51.606;7.624;2022-08-19T03:04:59;16.30;99.90
11501;DHT22;5807;51.606;7.624;2022-08-19T03:07:27;16.30;99.90
11501;DHT22;5807;51.606;7.624;2022-08-19T03:09:54;16.60;99.90
11501;DHT22;5807;51.606;7.624;2022-08-19T03:12:20;16.30;99.90
11501;DHT22;5807;51.606;7.624;2022-08-19T03:14:47;16.20;99.90
11501;DHT22;5807;51.606;7.624;2022-08-19T03:17:14;16.30;99.90
11501;DHT22;5807;51.606;7.624;2022-08-19T03:19:41;16.30;99.90
11501;DHT22;5807;51.606;7.624;2022-08-19T03:22:10;16.20;99.90
11501;DHT22;5807;51.606;7.624;2022-08-19T03:24:37;16.30;99.90
11501;DHT22;5807;51.606;7.624;2022-08-19T03:27:04;16.20;99.90
11501;DHT22;5807;51.606;7.624;2022-08-19T03:29:31;16.20;99.90
11501;DHT22;5807;51.606;7.624;2022-08-19T03:31:59;16.30;99.90
11501;DHT22;5807;51.606;7.624;2022-08-19T03:34:28;16.30;99.90
11501;DHT22;5807;51.606;7.624;2022-08-19T03:36:58;16.30;99.90
11501;DHT22;5807;51.606;7.624;2022-08-19T03:39:27;16.30;99.90
11501;DHT22;5807;51.606;7.624;2022-08-19T03:41:54;16.30;99.90
11501;DHT22;5807;51.606;7.624;2022-08-19T03:44:22;16.20;99.90
11501;DHT22;5807;51.606;7.624;2022-08-19T03:46:51;16.20;99.90
11501;DHT22;5807;51.606;7.624;2022-08-19T03:49:18;16.20;99.90
11501;DHT22;5807;51.606;7.624;2022-08-19T03:51:47;16.10;99.90
11501;DHT22;5807;51.606;7.624;2022-08-19T03:54:18;16.20;99.90
11501;DHT22;5807;51.606;7.624;2022-08-19T03:56:48;16.20;99.90
11501;DHT22;5807;51.606;7.624;2022-08-19T03:59:19;16.10;99.90
11501;DHT22;5807;51.606;7.624;2022-08-19T04:01:46;16.10;99.90
11501;DHT22;5807;51.606;7.624;2022-08-19T04:04:13;16.10;99.90
11501;DHT22;5807;51.606;7.624;2022-08-19T04:06:40;16.00;99.90
11501;DHT22;5807;51.606;7.624;2022-08-19T04:09:09;16.00;99.90
11501;DHT22;5807;51.606;7.624;2022-08-19T04:11:41;16.00;99.90
11501;DHT22;5807;51.606;7.624;2022-08-19T04:14:11;16.00;99.90
11501;DHT22;5807;51.606;7.624;2022-08-19T04:16:39;16.10;99.90
11501;DHT22;5807;51.606;7.624;2022-08-19T04:19:06;16.00;99.90
11501;DHT22;5807;51.606;7.624;2022-08-19T04:21:34;16.00;99.90
11501;DHT22;5807;51.606;7.624;2022-08-19T04:24:01;16.00;99.90
11501;DHT22;5807;51.606;7.624;2022-08-19T04:26:31;16.00;99.90
11501;DHT22;5807;51.606;7.624;2022-08-19T04:29:15;16.00;99.90
11501;DHT22;5807;51.606;7.624;2022-08-19T04:31:43;16.00;99.90
11501;DHT22;5807;51.606;7.624;2022-08-19T04:34:13;16.00;99.90
11501;DHT22;5807;51.606;7.624;2022-08-19T04:36:42;15.90;99.90
11501;DHT22;5807;51.606;7.624;2022-08-19T04:39:12;16.00;99.90
11501;DHT22;5807;51.606;7.624;2022-08-19T04:41:39;15.90;99.90
11501;DHT22;5807;51.606;7.624;2022-08-19T04:44:25;16.00;99.90
11501;DHT22;5807;51.606;7.624;2022-08-19T04:46:56;16.00;99.90
11501;DHT22;5807;51.606;7.624;2022-08-19T04:49:24;16.00;99.90
11501;DHT22;5807;51.606;7.624;2022-08-19T04:51:52;16.00;99.90
11501;DHT22;5807;51.606;7.624;2022-08-19T04:54:21;16.00;99.90
11501;DHT22;5807;51.606;7.624;2022-08-19T04:56:48;16.10;99.90
11501;DHT22;5807;51.606;7.624;2022-08-19T04:59:16;16.10;99.90
11501;DHT22;5807;51.606;7.624;2022-08-19T05:01:46;16.00;99.90
11501;DHT22;5807;51.606;7.624;2022-08-19T05:04:16;16.00;99.90
11501;DHT22;5807;51.606;7.624;2022-08-19T05:06:44;16.10;99.90
11501;DHT22;5807;51.606;7.624;2022-08-19T05:09:12;16.00;99.90
11501;DHT22;5807;51.606;7.624;2022-08-19T05:11:39;16.10;99.90
11501;DHT22;5807;51.606;7.624;2022-08-19T05:14:07;16.10;99.90
11501;DHT22;5807;51.606;7.624;2022-08-19T05:16:35;16.10;99.90
11501;DHT22;5807;51.606;7.624;2022-08-19T05:19:22;16.00;99.90
11501;DHT22;5807;51.606;7.624;2022-08-19T05:22:06;16.10;99.90
11501;DHT22;5807;51.606;7.624;2022-08-19T05:25:08;16.10;99.90
11501;DHT22;5807;51.606;7.624;2022-08-19T05:27:35;16.20;99.90
11501;DHT22;5807;51.606;7.624;2022-08-19T05:30:03;16.20;99.90
11501;DHT22;5807;51.606;7.624;2022-08-19T05:32:30;16.20;99.90
11501;DHT22;5807;51.606;7.624;2022-08-19T05:34:59;16.30;99.90
11501;DHT22;5807;51.606;7.624;2022-08-19T05:37:26;16.50;99.90
11501;DHT22;5807;51.606;7.624;2022-08-19T05:39:54;16.60;99.90
11501;DHT22;5807;51.606;7.624;2022-08-19T05:42:21;16.80;99.90
11501;DHT22;5807;51.606;7.624;2022-08-19T05:44:49;16.80;99.90
11501;DHT22;5807;51.606;7.624;2022-08-19T05:47:16;16.90;99.90
11501;DHT22;5807;51.606;7.624;2022-08-19T05:49:45;17.10;99.90
11501;DHT22;5807;51.606;7.624;2022-08-19T05:52:14;17.20;99.90
11501;DHT22;5807;51.606;7.624;2022-08-19T05:54:42;17.20;99.90
11501;DHT22;5807;51.606;7.624;2022-08-19T05:57:13;17.30;99.90
11501;DHT22;5807;51.606;7.624;2022-08-19T05:59:40;17.40;99.90
11501;DHT22;5807;51.606;7.624;2022-08-19T06:02:08;17.60;99.90
11501;DHT22;5807;51.606;7.624;2022-08-19T06:04:37;17.60;99.90
11501;DHT22;5807;51.606;7.624;2022-08-19T06:07:04;17.70;99.90
11501;DHT22;5807;51.606;7.624;2022-08-19T06:12:01;17.70;99.90
11501;DHT22;5807;51.606;7.624;2022-08-19T06:14:30;17.80;99.90
11501;DHT22;5807;51.606;7.624;2022-08-19T06:16:58;17.80;99.90
11501;DHT22;5807;51.606;7.624;2022-08-19T06:19:28;18.00;99.90
11501;DHT22;5807;51.606;7.624;2022-08-19T06:21:56;18.20;99.90
11501;DHT22;5807;51.606;7.624;2022-08-19T06:24:26;18.40;99.90
11501;DHT22;5807;51.606;7.624;2022-08-19T06:26:56;18.60;99.90
11501;DHT22;5807;51.606;7.624;2022-08-19T06:29:25;18.80;99.90
11501;DHT22;5807;51.606;7.624;2022-08-19T06:31:55;18.90;99.90
11501;DHT22;5807;51.606;7.624;2022-08-19T06:34:23;19.00;99.90
11501;DHT22;5807;51.606;7.624;2022-08-19T06:36:51;19.10;99.90
11501;DHT22;5807;51.606;7.624;2022-08-19T06:39:21;19.10;99.90
11501;DHT22;5807;51.606;7.624;2022-08-19T06:41:51;19.10;99.90
11501;DHT22;5807;51.606;7.624;2022-08-19T06:44:21;19.10;99.90
11501;DHT22;5807;51.606;7.624;2022-08-19T06:46:48;19.20;99.90
11501;DHT22;5807;51.606;7.624;2022-08-19T06:49:16;19.20;99.90
11501;DHT22;5807;51.606;7.624;2022-08-19T06:51:43;19.30;99.90
11501;DHT22;5807;51.606;7.624;2022-08-19T06:54:11;19.40;99.90
11501;DHT22;5807;51.606;7.624;2022-08-19T06:56:38;19.50;99.90
11501;DHT22;5807;51.606;7.624;2022-08-19T06:59:08;19.80;99.90
11501;DHT22;5807;51.606;7.624;2022-08-19T07:01:37;20.00;99.90
11501;DHT22;5807;51.606;7.624;2022-08-19T07:04:06;20.10;99.90
11501;DHT22;5807;51.606;7.624;2022-08-19T07:06:34;20.10;99.90
11501;DHT22;5807;51.606;7.624;2022-08-19T07:09:02;20.10;99.90
11501;DHT22;5807;51.606;7.624;2022-08-19T07:11:29;20.10;99.90
11501;DHT22;5807;51.606;7.624;2022-08-19T07:13:56;20.30;99.90
11501;DHT22;5807;51.606;7.624;2022-08-19T07:16:23;20.40;99.90
11501;DHT22;5807;51.606;7.624;2022-08-19T07:18:51;20.50;99.90
11501;DHT22;5807;51.606;7.624;2022-08-19T07:21:20;20.50;99.90
11501;DHT22;5807;51.606;7.624;2022-08-19T07:23:48;20.60;99.90
11501;DHT22;5807;51.606;7.624;2022-08-19T07:26:17;20.60;99.90
11501;DHT22;5807;51.606;7.624;2022-08-19T07:28:44;20.90;99.90
11501;DHT22;5807;51.606;7.624;2022-08-19T07:31:13;20.90;99.90
11501;DHT22;5807;51.606;7.624;2022-08-19T07:33:40;21.00;99.90
11501;DHT22;5807;51.606;7.624;2022-08-19T07:36:11;20.90;99.90
11501;DHT22;5807;51.606;7.624;2022-08-19T07:38:42;21.00;99.90
11501;DHT22;5807;51.606;7.624;2022-08-19T07:41:09;21.20;99.90
11501;DHT22;5807;51.606;7.624;2022-08-19T07:43:37;21.40;99.90
11501;DHT22;5807;51.606;7.624;2022-08-19T07:46:04;21.50;99.90
11501;DHT22;5807;51.606;7.624;2022-08-19T07:48:32;21.60;99.90
11501;DHT22;5807;51.606;7.624;2022-08-19T07:51:05;21.80;99.90
11501;DHT22;5807;51.606;7.624;2022-08-19T07:53:36;22.00;99.90
11501;DHT22;5807;51.606;7.624;2022-08-19T07:56:03;22.30;99.90
11501;DHT22;5807;51.606;7.624;2022-08-19T07:58:32;22.50;99.90
11501;DHT22;5807;51.606;7.624;2022-08-19T08:01:00;22.80;99.90
11501;DHT22;5807;51.606;7.624;2022-08-19T08:03:28;23.30;99.90
11501;DHT22;5807;51.606;7.624;2022-08-19T08:06:09;23.60;99.90
11501;DHT22;5807;51.606;7.624;2022-08-19T08:08:55;23.80;99.90
11501;DHT22;5807;51.606;7.624;2022-08-19T08:11:59;24.00;99.90
11501;DHT22;5807;51.606;7.624;2022-08-19T08:14:29;24.40;99.90
11501;DHT22;5807;51.606;7.624;2022-08-19T08:16:56;24.50;99.90
11501;DHT22;5807;51.606;7.624;2022-08-19T08:19:25;24.70;99.90
11501;DHT22;5807;51.606;7.624;2022-08-19T08:21:54;25.00;99.90
11501;DHT22;5807;51.606;7.624;2022-08-19T08:24:23;25.40;99.90
11501;DHT22;5807;51.606;7.624;2022-08-19T08:26:50;25.40;99.90
11501;DHT22;5807;51.606;7.624;2022-08-19T08:29:17;25.60;99.90
11501;DHT22;5807;51.606;7.624;2022-08-19T08:31:45;25.80;99.90
11501;DHT22;5807;51.606;7.624;2022-08-19T08:34:14;25.90;99.90
11501;DHT22;5807;51.606;7.624;2022-08-19T08:36:43;26.00;99.90
11501;DHT22;5807;51.606;7.624;2022-08-19T08:39:12;26.10;99.90
11501;DHT22;5807;51.606;7.624;2022-08-19T08:41:47;26.30;99.90
11501;DHT22;5807;51.606;7.624;2022-08-19T08:44:20;26.40;99.90
11501;DHT22;5807;51.606;7.624;2022-08-19T08:46:49;26.70;99.90
11501;DHT22;5807;51.606;7.624;2022-08-19T08:49:27;26.50;99.90
11501;DHT22;5807;51.606;7.624;2022-08-19T08:52:00;26.80;99.90
11501;DHT22;5807;51.606;7.624;2022-08-19T08:54:33;26.80;99.90
11501;DHT22;5807;51.606;7.624;2022-08-19T08:57:15;26.90;99.90
11501;DHT22;5807;51.606;7.624;2022-08-19T08:59:47;26.80;99.90
11501;DHT22;5807;51.606;7.624;2022-08-19T09:02:16;26.90;99.90
11501;DHT22;5807;51.606;7.624;2022-08-19T09:04:44;26.80;99.90
11501;DHT22;5807;51.606;7.624;2022-08-19T09:07:22;26.90;99.90
11501;DHT22;5807;51.606;7.624;2022-08-19T09:09:56;27.00;99.90
11501;DHT22;5807;51.606;7.624;2022-08-19T09:12:42;27.00;99.90
11501;DHT22;5807;51.606;7.624;2022-08-19T09:15:12;27.10;99.90
11501;DHT22;5807;51.606;7.624;2022-08-19T09:17:39;27.10;99.90
11501;DHT22;5807;51.606;7.624;2022-08-19T09:20:19;26.90;99.90
11501;DHT22;5807;51.606;7.624;2022-08-19T09:22:46;26.70;99.90
11501;DHT22;5807;51.606;7.624;2022-08-19T09:25:16;26.20;99.90
11501;DHT22;5807;51.606;7.624;2022-08-19T09:27:45;26.00;99.90
11501;DHT22;5807;51.606;7.624;2022-08-19T09:30:16;26.40;99.90
11501;DHT22;5807;51.606;7.624;2022-08-19T09:32:44;26.50;99.90
11501;DHT22;5807;51.606;7.624;2022-08-19T09:35:12;26.20;99.90
11501;DHT22;5807;51.606;7.624;2022-08-19T09:37:39;26.10;99.90
11501;DHT22;5807;51.606;7.624;2022-08-19T09:40:07;26.00;99.90
11501;DHT22;5807;51.606;7.624;2022-08-19T09:42:34;26.20;99.90
11501;DHT22;5807;51.606;7.624;2022-08-19T09:45:03;26.60;99.90
11501;DHT22;5807;51.606;7.624;2022-08-19T09:47:30;27.30;99.00
11501;DHT22;5807;51.606;7.624;2022-08-19T09:49:57;27.30;97.10
11501;DHT22;5807;51.606;7.624;2022-08-19T09:52:24;27.70;96.00
11501;DHT22;5807;51.606;7.624;2022-08-19T09:54:52;27.70;97.50
11501;DHT22;5807;51.606;7.624;2022-08-19T09:57:19;27.60;96.80
11501;DHT22;5807;51.606;7.624;2022-08-19T09:59:46;27.50;94.90
11501;DHT22;5807;51.606;7.624;2022-08-19T10:02:15;27.50;97.20
11501;DHT22;5807;51.606;7.624;2022-08-19T10:04:41;27.50;97.40
11501;DHT22;5807;51.606;7.624;2022-08-19T10:07:26;27.30;97.00
11501;DHT22;5807;51.606;7.624;2022-08-19T10:09:52;27.20;96.20
11501;DHT22;5807;51.606;7.624;2022-08-19T10:12:19;26.30;98.50
11501;DHT22;5807;51.606;7.624;2022-08-19T10:14:46;26.30;99.40
11501;DHT22;5807;51.606;7.624;2022-08-19T10:17:15;25.80;99.90
11501;DHT22;5807;51.606;7.624;2022-08-19T10:19:43;25.70;99.90
11501;DHT22;5807;51.606;7.624;2022-08-19T10:24:39;26.80;97.70
11501;DHT22;5807;51.606;7.624;2022-08-19T10:27:06;27.60;96.50
11501;DHT22;5807;51.606;7.624;2022-08-19T10:29:35;28.10;97.00
11501;DHT22;5807;51.606;7.624;2022-08-19T10:32:04;28.20;94.30
11501;DHT22;5807;51.606;7.624;2022-08-19T10:34:33;28.20;94.90
11501;DHT22;5807;51.606;7.624;2022-08-19T10:37:00;28.30;93.60
11501;DHT22;5807;51.606;7.624;2022-08-19T10:39:27;28.00;93.50
11501;DHT22;5807;51.606;7.624;2022-08-19T10:41:55;27.90;92.70
11501;DHT22;5807;51.606;7.624;2022-08-19T10:46:49;28.10;91.30
11501;DHT22;5807;51.606;7.624;2022-08-19T10:49:17;28.10;92.00
11501;DHT22;5807;51.606;7.624;2022-08-19T10:51:46;28.30;92.00
11501;DHT22;5807;51.606;7.624;2022-08-19T10:54:32;28.60;92.30
11501;DHT22;5807;51.606;7.624;2022-08-19T10:57:13;29.10;90.80
11501;DHT22;5807;51.606;7.624;2022-08-19T10:59:40;28.60;90.30
11501;DHT22;5807;51.606;7.624;2022-08-19T11:02:09;28.10;91.30
11501;DHT22;5807;51.606;7.624;2022-08-19T11:04:37;28.10;91.60
11501;DHT22;5807;51.606;7.624;2022-08-19T11:07:06;28.50;92.60
11501;DHT22;5807;51.606;7.624;2022-08-19T11:09:37;29.10;90.40
11501;DHT22;5807;51.606;7.624;2022-08-19T11:12:05;29.40;89.10
11501;DHT22;5807;51.606;7.624;2022-08-19T11:14:33;29.60;88.30
11501;DHT22;5807;51.606;7.624;2022-08-19T11:17:01;29.70;87.60
11501;DHT22;5807;51.606;7.624;2022-08-19T11:19:28;29.80;84.80
11501;DHT22;5807;51.606;7.624;2022-08-19T11:21:55;30.00;82.70
11501;DHT22;5807;51.606;7.624;2022-08-19T11:24:25;30.10;81.30
11501;DHT22;5807;51.606;7.624;2022-08-19T11:26:54;30.20;83.10
11501;DHT22;5807;51.606;7.624;2022-08-19T11:29:24;30.40;78.60
11501;DHT22;5807;51.606;7.624;2022-08-19T11:31:53;30.70;79.80
11501;DHT22;5807;51.606;7.624;2022-08-19T11:34:21;30.90;74.40
11501;DHT22;5807;51.606;7.624;2022-08-19T11:36:50;31.00;78.20
11501;DHT22;5807;51.606;7.624;2022-08-19T11:39:21;30.70;79.00
11501;DHT22;5807;51.606;7.624;2022-08-19T11:41:50;29.80;79.40
11501;DHT22;5807;51.606;7.624;2022-08-19T11:44:17;28.90;82.70
11501;DHT22;5807;51.606;7.624;2022-08-19T11:46:45;28.70;85.20
11501;DHT22;5807;51.606;7.624;2022-08-19T11:49:12;28.90;85.40
11501;DHT22;5807;51.606;7.624;2022-08-19T11:51:40;29.40;83.10
11501;DHT22;5807;51.606;7.624;2022-08-19T11:54:09;29.40;82.20
11501;DHT22;5807;51.606;7.624;2022-08-19T11:56:37;28.90;83.00
11501;DHT22;5807;51.606;7.624;2022-08-19T11:59:06;28.50;83.40
11501;DHT22;5807;51.606;7.624;2022-08-19T12:01:33;28.20;83.50
11501;DHT22;5807;51.606;7.624;2022-08-19T12:04:00;28.80;83.00
11501;DHT22;5807;51.606;7.624;2022-08-19T12:06:31;29.40;84.10
11501;DHT22;5807;51.606;7.624;2022-08-19T12:09:04;29.40;82.30
11501;DHT22;5807;51.606;7.624;2022-08-19T12:11:31;29.00;80.60
11501;DHT22;5807;51.606;7.624;2022-08-19T12:13:58;28.70;81.20
11501;DHT22;5807;51.606;7.624;2022-08-19T12:16:28;28.40;83.80
11501;DHT22;5807;51.606;7.624;2022-08-19T12:18:56;28.00;85.80
11501;DHT22;5807;51.606;7.624;2022-08-19T12:21:26;27.60;84.00
11501;DHT22;5807;51.606;7.624;2022-08-19T12:23:55;27.40;86.90
11501;DHT22;5807;51.606;7.624;2022-08-19T12:26:24;27.90;84.80
11501;DHT22;5807;51.606;7.624;2022-08-19T12:28:51;28.40;84.50
11501;DHT22;5807;51.606;7.624;2022-08-19T12:31:18;28.90;81.30
11501;DHT22;5807;51.606;7.624;2022-08-19T12:33:47;29.30;78.40
11501;DHT22;5807;51.606;7.624;2022-08-19T12:36:15;29.60;77.00
11501;DHT22;5807;51.606;7.624;2022-08-19T12:38:43;29.70;77.90
11501;DHT22;5807;51.606;7.624;2022-08-19T12:41:12;29.80;79.90
11501;DHT22;5807;51.606;7.624;2022-08-19T12:43:39;29.90;73.80
11501;DHT22;5807;51.606;7.624;2022-08-19T12:46:07;29.90;72.90
11501;DHT22;5807;51.606;7.624;2022-08-19T12:48:34;29.90;75.70
11501;DHT22;5807;51.606;7.624;2022-08-19T12:51:06;30.10;75.70
11501;DHT22;5807;51.606;7.624;2022-08-19T12:53:33;30.20;74.90
11501;DHT22;5807;51.606;7.624;2022-08-19T12:56:01;30.30;73.50
11501;DHT22;5807;51.606;7.624;2022-08-19T12:58:29;29.90;77.60
11501;DHT22;5807;51.606;7.624;2022-08-19T13:00:58;29.70;76.20
11501;DHT22;5807;51.606;7.624;2022-08-19T13:03:24;29.70;79.40
11501;DHT22;5807;51.606;7.624;2022-08-19T13:05:55;30.10;75.80
11501;DHT22;5807;51.606;7.624;2022-08-19T13:08:23;30.30;74.10
11501;DHT22;5807;51.606;7.624;2022-08-19T13:10:50;30.20;72.70
11501;DHT22;5807;51.606;7.624;2022-08-19T13:13:17;30.00;75.60
11501;DHT22;5807;51.606;7.624;2022-08-19T13:15:43;29.70;72.60
11501;DHT22;5807;51.606;7.624;2022-08-19T13:18:11;29.60;74.30
11501;DHT22;5807;51.606;7.624;2022-08-19T13:20:39;29.50;72.50
11501;DHT22;5807;51.606;7.624;2022-08-19T13:23:07;29.40;74.90
11501;DHT22;5807;51.606;7.624;2022-08-19T13:25:35;29.60;76.00
11501;DHT22;5807;51.606;7.624;2022-08-19T13:28:02;29.80;75.60
11501;DHT22;5807;51.606;7.624;2022-08-19T13:30:29;29.60;75.50
11501;DHT22;5807;51.606;7.624;2022-08-19T13:33:14;29.30;76.00
11501;DHT22;5807;51.606;7.624;2022-08-19T13:35:44;29.50;75.40
11501;DHT22;5807;51.606;7.624;2022-08-19T13:38:12;29.70;73.50
11501;DHT22;5807;51.606;7.624;2022-08-19T13:40:41;29.70;72.80
11501;DHT22;5807;51.606;7.624;2022-08-19T13:43:09;29.80;72.40
11501;DHT22;5807;51.606;7.624;2022-08-19T13:45:36;29.70;71.70
11501;DHT22;5807;51.606;7.624;2022-08-19T13:48:05;29.20;72.50
11501;DHT22;5807;51.606;7.624;2022-08-19T13:50:37;28.40;73.90
11501;DHT22;5807;51.606;7.624;2022-08-19T13:53:04;28.30;74.90
11501;DHT22;5807;51.606;7.624;2022-08-19T13:55:31;28.50;74.80
11501;DHT22;5807;51.606;7.624;2022-08-19T13:58:00;28.90;74.40
11501;DHT22;5807;51.606;7.624;2022-08-19T14:00:32;29.30;74.10
11501;DHT22;5807;51.606;7.624;2022-08-19T14:02:59;29.60;72.80
11501;DHT22;5807;51.606;7.624;2022-08-19T14:05:27;29.50;73.00
11501;DHT22;5807;51.606;7.624;2022-08-19T14:07:54;29.20;72.80
11501;DHT22;5807;51.606;7.624;2022-08-19T14:10:22;29.20;71.40
11501;DHT22;5807;51.606;7.624;2022-08-19T14:12:51;29.50;70.70
11501;DHT22;5807;51.606;7.624;2022-08-19T14:15:20;29.60;70.80
11501;DHT22;5807;51.606;7.624;2022-08-19T14:17:47;29.70;71.30
11501;DHT22;5807;51.606;7.624;2022-08-19T14:20:14;29.60;72.50
11501;DHT22;5807;51.606;7.624;2022-08-19T14:22:42;29.20;72.40
11501;DHT22;5807;51.606;7.624;2022-08-19T14:25:24;29.10;75.30
11501;DHT22;5807;51.606;7.624;2022-08-19T14:27:51;29.40;76.00
11501;DHT22;5807;51.606;7.624;2022-08-19T14:30:21;29.50;73.30
11501;DHT22;5807;51.606;7.624;2022-08-19T14:32:48;29.20;72.80
11501;DHT22;5807;51.606;7.624;2022-08-19T14:35:16;29.30;72.80
11501;DHT22;5807;51.606;7.624;2022-08-19T14:37:44;29.20;72.70
11501;DHT22;5807;51.606;7.624;2022-08-19T14:40:13;29.00;72.70
11501;DHT22;5807;51.606;7.624;2022-08-19T14:42:40;28.50;73.30
11501;DHT22;5807;51.606;7.624;2022-08-19T14:45:08;28.50;75.00
11501;DHT22;5807;51.606;7.624;2022-08-19T14:47:37;28.20;75.40
11501;DHT22;5807;51.606;7.624;2022-08-19T14:50:05;28.00;74.20
11501;DHT22;5807;51.606;7.624;2022-08-19T14:52:33;27.80;76.70
11501;DHT22;5807;51.606;7.624;2022-08-19T14:54:59;27.80;77.70
11501;DHT22;5807;51.606;7.624;2022-08-19T14:57:26;28.50;75.80
11501;DHT22;5807;51.606;7.624;2022-08-19T14:59:53;29.00;72.70
11501;DHT22;5807;51.606;7.624;2022-08-19T15:02:20;29.70;69.80
11501;DHT22;5807;51.606;7.624;2022-08-19T15:04:48;29.80;71.20
11501;DHT22;5807;51.606;7.624;2022-08-19T15:07:15;30.00;69.30
11501;DHT22;5807;51.606;7.624;2022-08-19T15:09:42;30.30;68.80
11501;DHT22;5807;51.606;7.624;2022-08-19T15:12:09;30.20;68.60
11501;DHT22;5807;51.606;7.624;2022-08-19T15:14:37;30.20;68.70
11501;DHT22;5807;51.606;7.624;2022-08-19T15:17:05;30.10;71.60
11501;DHT22;5807;51.606;7.624;2022-08-19T15:19:32;30.10;71.30
11501;DHT22;5807;51.606;7.624;2022-08-19T15:22:17;30.10;68.80
11501;DHT22;5807;51.606;7.624;2022-08-19T15:24:44;29.70;68.10
11501;DHT22;5807;51.606;7.624;2022-08-19T15:27:11;29.40;72.70
11501;DHT22;5807;51.606;7.624;2022-08-19T15:29:39;28.50;70.30
11501;DHT22;5807;51.606;7.624;2022-08-19T15:32:06;28.50;71.50
11501;DHT22;5807;51.606;7.624;2022-08-19T15:34:33;28.20;72.40
11501;DHT22;5807;51.606;7.624;2022-08-19T15:37:01;28.00;74.50
11501;DHT22;5807;51.606;7.624;2022-08-19T15:39:32;27.80;74.20
11501;DHT22;5807;51.606;7.624;2022-08-19T15:41:59;27.80;72.90
11501;DHT22;5807;51.606;7.624;2022-08-19T15:44:27;27.40;72.80
11501;DHT22;5807;51.606;7.624;2022-08-19T15:46:54;27.30;73.70
11501;DHT22;5807;51.606;7.624;2022-08-19T15:49:21;27.20;75.40
11501;DHT22;5807;51.606;7.624;2022-08-19T15:51:49;27.10;74.60
11501;DHT22;5807;51.606;7.624;2022-08-19T15:54:19;27.10;73.70
11501;DHT22;5807;51.606;7.624;2022-08-19T15:56:48;27.00;74.60
11501;DHT22;5807;51.606;7.624;2022-08-19T15:59:34;26.90;76.10
11501;DHT22;5807;51.606;7.624;2022-08-19T16:02:20;26.70;74.70
11501;DHT22;5807;51.606;7.624;2022-08-19T16:05:14;26.70;75.20
11501;DHT22;5807;51.606;7.624;2022-08-19T16:08:00;26.70;74.90